Time;durP1;ratioP1;P1;durP2;ratioP2;P2;SDS_P1;SDS_P2;PMS_P1;PMS_P2;Temp;Humidity;BMP_temperature;BMP_pressure;BME280_temperature;BME280_humidity;BME280_pressure;Samples;Min_cycle;Max_cycle;Signal;HPM_P1;HPM_P2
2022/04/22 00:00:26;;;;;;;9.18;5.32;;;;;;;;;;5038789;28;20049;-82
2022/04/22 00:02:55;;;;;;;7.38;4.93;;;;;;;;;;5038669;28;20050;-82
2022/04/22 00:05:23;;;;;;;7.32;4.85;;;;;;;;;;5038807;28;20085;-82
2022/04/22 00:07:53;;;;;;;9.90;5.90;;;;;;;;;;5039384;28;20137;-82
2022/04/22 00:10:21;;;;;;;9.82;5.43;;;;;;;;;;5041512;28;20069;-82
2022/04/22 00:12:50;;;;;;;8.90;5.93;;;;;;;;;;5039873;28;20061;-82
2022/04/22 00:15:20;;;;;;;8.65;5.63;;;;;;;;;;5040015;28;20053;-82
2022/04/22 00:17:49;;;;;;;9.35;4.97;;;;;;;;;;5039313;28;20054;-81
2022/04/22 00:20:17;;;;;;;8.60;4.95;;;;;;;;;;5040186;28;20118;-82
2022/04/22 00:22:46;;;;;;;8.65;5.15;;;;;;;;;;5040072;28;20128;-82
2022/04/22 00:25:15;;;;;;;8.10;5.00;;;;;;;;;;5041943;28;20107;-81
2022/04/22 00:27:44;;;;;;;9.48;5.10;;;;;;;;;;5058822;28;20076;-82
2022/04/22 00:30:13;;;;;;;8.52;4.97;;;;;;;;;;5059522;28;20085;-82
2022/04/22 00:32:41;;;;;;;9.68;5.43;;;;;;;;;;5056363;28;20515;-82
2022/04/22 00:35:10;;;;;;;7.95;5.15;;;;;;;;;;5058125;28;20084;-81
2022/04/22 00:37:40;;;;;;;10.75;5.32;;;;;;;;;;5057785;28;20541;-82
2022/04/22 00:40:08;;;;;;;7.80;5.35;;;;;;;;;;5041965;28;20060;-81
2022/04/22 00:42:39;;;;;;;8.77;5.20;;;;;;;;;;5050162;28;20080;-82
2022/04/22 00:45:09;;;;;;;11.15;5.72;;;;;;;;;;5058056;28;20059;-81
2022/04/22 00:47:37;;;;;;;8.88;4.93;;;;;;;;;;5057580;28;20079;-82
2022/04/22 00:50:06;;;;;;;10.13;5.45;;;;;;;;;;5041562;28;20076;-81
2022/04/22 00:52:34;;;;;;;11.57;5.57;;;;;;;;;;5038528;28;20598;-82
2022/04/22 00:55:03;;;;;;;9.10;4.68;;;;;;;;;;5038847;28;20370;-81
2022/04/22 00:57:32;;;;;;;10.93;4.80;;;;;;;;;;5039747;28;20084;-82
2022/04/22 01:00:02;;;;;;;10.38;4.75;;;;;;;;;;5039417;28;20063;-82
2022/04/22 01:02:31;;;;;;;9.50;5.20;;;;;;;;;;5040238;28;20128;-81
2022/04/22 01:10:31;;;;;;;8.32;4.63;;;;;;;;;;5039911;28;20091;-82
2022/04/22 01:12:59;;;;;;;8.15;5.38;;;;;;;;;;5040413;28;20441;-82
2022/04/22 01:15:29;;;;;;;7.80;4.70;;;;;;;;;;5048536;28;20045;-81
2022/04/22 01:17:58;;;;;;;8.43;5.68;;;;;;;;;;5059060;28;20134;-82
2022/04/22 01:20:26;;;;;;;10.18;4.93;;;;;;;;;;5072176;28;20045;-81
2022/04/22 01:22:55;;;;;;;6.63;4.78;;;;;;;;;;5064280;28;20085;-82
2022/04/22 01:25:24;;;;;;;9.45;5.25;;;;;;;;;;5052207;28;20126;-82
2022/04/22 01:27:52;;;;;;;10.50;5.30;;;;;;;;;;5051545;28;20060;-82
2022/04/22 01:30:21;;;;;;;8.75;5.15;;;;;;;;;;5041990;28;20055;-82
2022/04/22 01:32:51;;;;;;;9.40;5.57;;;;;;;;;;5032382;28;20049;-82
2022/04/22 01:35:19;;;;;;;8.40;5.05;;;;;;;;;;5035624;28;20081;-82
2022/04/22 01:37:47;;;;;;;8.75;5.00;;;;;;;;;;5050735;28;20441;-82
2022/04/22 01:40:17;;;;;;;9.75;4.70;;;;;;;;;;5051876;28;20044;-82
2022/04/22 01:42:46;;;;;;;8.77;5.22;;;;;;;;;;5051489;28;20757;-82
2022/04/22 01:45:14;;;;;;;8.30;4.68;;;;;;;;;;5051802;28;20041;-82
2022/04/22 01:47:43;;;;;;;7.03;4.80;;;;;;;;;;5042247;28;20049;-82
2022/04/22 01:50:11;;;;;;;8.45;5.00;;;;;;;;;;5036614;28;20065;-82
2022/04/22 01:52:41;;;;;;;11.07;5.10;;;;;;;;;;5036040;28;20049;-82
2022/04/22 01:55:10;;;;;;;7.85;4.63;;;;;;;;;;5036014;28;20045;-82
2022/04/22 01:57:39;;;;;;;7.85;5.15;;;;;;;;;;5035679;28;20079;-82
2022/04/22 02:00:10;;;;;;;8.32;4.78;;;;;;;;;;5035948;28;20107;-82
2022/04/22 02:02:38;;;;;;;9.43;4.90;;;;;;;;;;5035643;28;20045;-82
2022/04/22 02:05:07;;;;;;;8.85;4.70;;;;;;;;;;5035563;28;20057;-82
2022/04/22 02:07:35;;;;;;;10.52;5.75;;;;;;;;;;5035460;28;20481;-82
2022/04/22 02:10:04;;;;;;;8.77;5.10;;;;;;;;;;5037216;28;20099;-82
2022/04/22 02:12:32;;;;;;;9.10;4.88;;;;;;;;;;5050505;28;20061;-82
2022/04/22 02:15:02;;;;;;;8.30;4.43;;;;;;;;;;5035088;28;20132;-81
2022/04/22 02:17:31;;;;;;;9.05;5.63;;;;;;;;;;5034852;28;20540;-82
2022/04/22 02:19:59;;;;;;;9.10;5.57;;;;;;;;;;5034845;28;20069;-82
2022/04/22 02:22:27;;;;;;;10.55;5.32;;;;;;;;;;5035068;28;20476;-82
2022/04/22 02:24:57;;;;;;;10.52;5.78;;;;;;;;;;5035225;28;20470;-81
2022/04/22 02:30:15;;;;;;;9.40;5.35;;;;;;;;;;5000907;28;20084;-82
2022/04/22 02:32:44;;;;;;;9.68;5.35;;;;;;;;;;5035166;28;20075;-82
2022/04/22 02:35:13;;;;;;;8.40;4.72;;;;;;;;;;5037885;28;20178;-82
2022/04/22 02:37:42;;;;;;;9.05;5.32;;;;;;;;;;5049729;28;20049;-82
2022/04/22 02:40:11;;;;;;;9.00;4.95;;;;;;;;;;5035745;28;20539;-82
2022/04/22 02:45:41;;;;;;;11.18;5.78;;;;;;;;;;4973009;28;20940;-82
2022/04/22 02:48:09;;;;;;;10.95;5.30;;;;;;;;;;4972760;28;20043;-82
2022/04/22 02:50:38;;;;;;;8.00;4.68;;;;;;;;;;5001325;28;20076;-81
2022/04/22 02:53:06;;;;;;;10.00;5.88;;;;;;;;;;5041056;28;20523;-82
2022/04/22 02:55:37;;;;;;;9.50;5.38;;;;;;;;;;5042777;28;20046;-82
2022/04/22 02:58:07;;;;;;;10.90;6.00;;;;;;;;;;5034175;28;20520;-82
2022/04/22 03:00:36;;;;;;;11.65;5.85;;;;;;;;;;5034348;28;20490;-82
2022/04/22 03:03:05;;;;;;;10.32;5.25;;;;;;;;;;5033853;28;20206;-81
2022/04/22 03:05:35;;;;;;;9.57;5.15;;;;;;;;;;5034232;28;20085;-82
2022/04/22 03:08:05;;;;;;;11.35;5.80;;;;;;;;;;5033203;28;20115;-82
2022/04/22 03:10:33;;;;;;;13.15;5.85;;;;;;;;;;5034784;28;20077;-82
2022/04/22 03:13:03;;;;;;;10.85;5.57;;;;;;;;;;5034325;28;20077;-82
2022/04/22 03:15:33;;;;;;;10.85;6.18;;;;;;;;;;5034741;28;20053;-82
2022/04/22 03:18:02;;;;;;;10.35;5.78;;;;;;;;;;5032869;28;20053;-82
2022/04/22 03:20:31;;;;;;;10.52;5.97;;;;;;;;;;5034162;28;20591;-82
2022/04/22 03:23:00;;;;;;;10.07;5.70;;;;;;;;;;5034238;28;20537;-81
2022/04/22 03:25:28;;;;;;;8.85;5.10;;;;;;;;;;5034495;28;20477;-82
2022/04/22 03:27:56;;;;;;;11.57;6.13;;;;;;;;;;5033471;28;20076;-82
2022/04/22 03:30:25;;;;;;;10.27;5.57;;;;;;;;;;5035033;28;20123;-82
2022/04/22 03:32:54;;;;;;;13.95;5.97;;;;;;;;;;5034286;28;20069;-82
2022/04/22 03:35:22;;;;;;;10.25;5.47;;;;;;;;;;5038045;28;20057;-82
2022/04/22 03:37:52;;;;;;;9.20;5.95;;;;;;;;;;5053086;28;20059;-82
2022/04/22 03:40:20;;;;;;;10.40;5.15;;;;;;;;;;5053623;28;20492;-82
2022/04/22 03:42:49;;;;;;;11.63;5.20;;;;;;;;;;5039744;28;20572;-82
2022/04/22 03:45:17;;;;;;;11.25;5.78;;;;;;;;;;5033474;28;20115;-81
2022/04/22 03:47:46;;;;;;;12.00;6.65;;;;;;;;;;5032698;28;20055;-82
2022/04/22 03:50:14;;;;;;;10.75;6.05;;;;;;;;;;5050952;28;20077;-82
2022/04/22 03:52:43;;;;;;;11.60;6.45;;;;;;;;;;5053610;28;20045;-81
2022/04/22 03:55:12;;;;;;;13.38;6.38;;;;;;;;;;5053146;28;20049;-81
2022/04/22 04:00:27;;;;;;;11.38;6.13;;;;;;;;;;4991374;28;20153;-82
2022/04/22 04:02:55;;;;;;;12.10;6.65;;;;;;;;;;4984322;28;20137;-82
2022/04/22 04:05:23;;;;;;;14.20;6.95;;;;;;;;;;4971738;28;20050;-82
2022/04/22 04:07:51;;;;;;;15.70;6.75;;;;;;;;;;4970878;28;20142;-82
2022/04/22 04:15:59;;;;;;;11.18;6.30;;;;;;;;;;4971850;28;20082;-82
2022/04/22 04:18:28;;;;;;;13.25;7.43;;;;;;;;;;4971214;28;20133;-82
2022/04/22 04:23:51;;;;;;;11.15;6.20;;;;;;;;;;4976973;28;20138;-82
2022/04/22 04:26:24;;;;;;;14.43;7.05;;;;;;;;;;5025012;28;20041;-82
2022/04/22 04:28:53;;;;;;;10.95;6.47;;;;;;;;;;5051746;28;20127;-82
2022/04/22 04:31:22;;;;;;;13.60;7.30;;;;;;;;;;5052576;28;20136;-81
2022/04/22 04:33:50;;;;;;;12.68;7.30;;;;;;;;;;5038837;28;20049;-81
2022/04/22 04:36:18;;;;;;;13.48;7.63;;;;;;;;;;5031009;28;20555;-82
2022/04/22 04:38:47;;;;;;;15.23;7.57;;;;;;;;;;5012279;28;20092;-82
2022/04/22 04:41:15;;;;;;;14.50;7.10;;;;;;;;;;5012957;28;20402;-81
2022/04/22 04:43:44;;;;;;;14.40;7.63;;;;;;;;;;5012788;28;20342;-82
2022/04/22 04:46:13;;;;;;;14.85;7.80;;;;;;;;;;5013301;28;20110;-82
2022/04/22 04:48:42;;;;;;;13.80;7.07;;;;;;;;;;5012181;28;20042;-82
2022/04/22 04:51:10;;;;;;;14.20;7.45;;;;;;;;;;5013000;28;20074;-82
2022/04/22 04:53:38;;;;;;;14.43;8.18;;;;;;;;;;5017106;28;20041;-82
2022/04/22 04:56:08;;;;;;;16.70;8.25;;;;;;;;;;5032751;28;20088;-82
2022/04/22 04:58:36;;;;;;;14.48;7.53;;;;;;;;;;5031917;28;20609;-82
2022/04/22 05:01:08;;;;;;;15.50;7.60;;;;;;;;;;5032229;28;20063;-82
2022/04/22 05:03:38;;;;;;;14.35;8.10;;;;;;;;;;5031908;28;20045;-82
2022/04/22 05:06:08;;;;;;;16.27;8.07;;;;;;;;;;5043129;28;20053;-82
2022/04/22 05:08:37;;;;;;;14.38;7.50;;;;;;;;;;5050906;28;20061;-82
2022/04/22 05:11:08;;;;;;;16.30;8.13;;;;;;;;;;5043387;28;20559;-82
2022/04/22 05:13:36;;;;;;;13.60;7.50;;;;;;;;;;5031600;28;20092;-82
2022/04/22 05:16:09;;;;;;;15.07;7.47;;;;;;;;;;5040922;28;20107;-81
2022/04/22 05:18:38;;;;;;;15.30;8.10;;;;;;;;;;5050962;28;20248;-81
2022/04/22 05:21:09;;;;;;;17.15;8.13;;;;;;;;;;5050487;28;20139;-82
2022/04/22 05:23:38;;;;;;;15.48;7.88;;;;;;;;;;5051857;28;20550;-82
2022/04/22 05:26:09;;;;;;;19.60;8.45;;;;;;;;;;5051938;28;20095;-82
2022/04/22 05:28:38;;;;;;;18.52;9.52;;;;;;;;;;5038670;28;20091;-82
2022/04/22 05:33:56;;;;;;;17.20;8.25;;;;;;;;;;5031584;28;20053;-82
2022/04/22 05:36:25;;;;;;;15.93;8.48;;;;;;;;;;5045060;28;20439;-82
2022/04/22 05:38:53;;;;;;;16.88;8.85;;;;;;;;;;5050800;28;20194;-82
2022/04/22 05:41:21;;;;;;;16.10;8.07;;;;;;;;;;5051051;28;20587;-82
2022/04/22 05:43:50;;;;;;;15.18;7.40;;;;;;;;;;5051704;28;20079;-81
2022/04/22 05:46:19;;;;;;;14.90;8.15;;;;;;;;;;5034231;28;20380;-82
2022/04/22 05:48:48;;;;;;;18.95;9.23;;;;;;;;;;5030240;28;20057;-82
2022/04/22 05:51:16;;;;;;;16.95;8.98;;;;;;;;;;5031782;28;20100;-82
2022/04/22 05:53:47;;;;;;;19.20;9.18;;;;;;;;;;5031897;28;20092;-82
2022/04/22 05:56:16;;;;;;;18.33;8.57;;;;;;;;;;5031535;28;20512;-82
2022/04/22 05:58:44;;;;;;;18.92;8.75;;;;;;;;;;5031336;28;20501;-82
2022/04/22 06:01:13;;;;;;;18.45;8.65;;;;;;;;;;5031886;28;20536;-81
2022/04/22 06:03:43;;;;;;;15.77;8.43;;;;;;;;;;5031476;28;20045;-82
2022/04/22 06:06:12;;;;;;;21.30;9.05;;;;;;;;;;5046012;28;20060;-82
2022/04/22 06:11:26;;;;;;;;;;;;;;;;;;5030895;28;20049;-82
2022/04/22 06:13:55;;;;;;;19.92;8.63;;;;;;;;;;5052030;28;19955;-82
2022/04/22 06:16:24;;;;;;;17.00;9.25;;;;;;;;;;5051865;28;20041;-82
2022/04/22 06:18:54;;;;;;;15.95;9.02;;;;;;;;;;5044947;28;20049;-82
2022/04/22 06:21:22;;;;;;;18.77;8.60;;;;;;;;;;5031718;28;20497;-82
2022/04/22 06:23:51;;;;;;;19.45;9.48;;;;;;;;;;5031484;28;20472;-82
2022/04/22 06:26:19;;;;;;;16.35;8.45;;;;;;;;;;5031971;28;20091;-81
2022/04/22 06:28:48;;;;;;;13.93;8.15;;;;;;;;;;5031040;28;20049;-82
2022/04/22 06:31:16;;;;;;;18.08;9.50;;;;;;;;;;5031473;28;20477;-82
2022/04/22 06:33:45;;;;;;;18.42;9.38;;;;;;;;;;5035353;28;20056;-82
2022/04/22 06:36:15;;;;;;;15.65;8.63;;;;;;;;;;5037099;28;20493;-82
2022/04/22 06:38:46;;;;;;;15.60;9.07;;;;;;;;;;5035197;28;20098;-82
2022/04/22 06:46:47;;;;;;;22.85;9.43;;;;;;;;;;5036504;28;20084;-82
2022/04/22 06:49:16;;;;;;;18.00;9.75;;;;;;;;;;5042575;28;20076;-82
2022/04/22 06:51:46;;;;;;;17.88;9.43;;;;;;;;;;5034866;28;20090;-82
2022/04/22 06:54:14;;;;;;;19.42;9.00;;;;;;;;;;5034866;28;20069;-82
2022/04/22 06:56:44;;;;;;;15.50;8.95;;;;;;;;;;5035315;28;20053;-82
2022/04/22 06:59:12;;;;;;;16.10;9.13;;;;;;;;;;5034030;28;20140;-82
2022/04/22 07:01:41;;;;;;;17.98;9.30;;;;;;;;;;5034799;28;20378;-82
2022/04/22 07:04:12;;;;;;;16.98;8.50;;;;;;;;;;5034661;28;20103;-82
2022/04/22 07:06:42;;;;;;;15.55;8.60;;;;;;;;;;5034264;28;20057;-82
2022/04/22 07:09:13;;;;;;;18.75;9.13;;;;;;;;;;5033933;28;20049;-82
2022/04/22 07:11:42;;;;;;;14.95;8.20;;;;;;;;;;5034857;28;20081;-82
2022/04/22 07:14:11;;;;;;;15.52;8.60;;;;;;;;;;5034530;28;20049;-82
2022/04/22 07:16:44;;;;;;;15.75;8.88;;;;;;;;;;5033871;28;20481;-82
2022/04/22 07:19:13;;;;;;;16.63;8.63;;;;;;;;;;5033709;28;20053;-82
2022/04/22 07:21:41;;;;;;;15.63;8.85;;;;;;;;;;5034474;28;20046;-82
2022/04/22 07:24:10;;;;;;;17.35;9.50;;;;;;;;;;5046898;28;20041;-82
2022/04/22 07:26:44;;;;;;;15.23;8.73;;;;;;;;;;5053364;28;20126;-82
2022/04/22 07:29:14;;;;;;;17.15;9.70;;;;;;;;;;5053564;28;20048;-82
2022/04/22 07:31:43;;;;;;;19.48;9.95;;;;;;;;;;5054313;28;20052;-82
2022/04/22 07:34:11;;;;;;;17.80;8.93;;;;;;;;;;5054598;28;20049;-82
2022/04/22 07:36:40;;;;;;;17.63;9.30;;;;;;;;;;5053754;28;20102;-82
2022/04/22 07:39:09;;;;;;;15.13;9.23;;;;;;;;;;5053876;28;20118;-81
2022/04/22 07:41:39;;;;;;;18.08;9.10;;;;;;;;;;5053228;28;20053;-82
2022/04/22 07:47:02;;;;;;;14.40;8.60;;;;;;;;;;5033719;28;20051;-82
2022/04/22 07:49:32;;;;;;;18.98;9.45;;;;;;;;;;5033227;28;20058;-82
2022/04/22 07:52:00;;;;;;;18.70;9.52;;;;;;;;;;5033060;28;20045;-81
2022/04/22 07:54:29;;;;;;;14.57;7.88;;;;;;;;;;5033999;28;20045;-82
2022/04/22 07:56:59;;;;;;;21.02;8.70;;;;;;;;;;5033433;28;20062;-82
2022/04/22 07:59:33;;;;;;;15.70;7.43;;;;;;;;;;5033101;28;20076;-82
2022/04/22 08:02:02;;;;;;;17.15;8.75;;;;;;;;;;5032964;28;20458;-82
2022/04/22 08:04:31;;;;;;;16.65;8.63;;;;;;;;;;5033224;28;20382;-82
2022/04/22 08:07:00;;;;;;;16.70;8.10;;;;;;;;;;5032675;28;20053;-82
2022/04/22 08:09:49;;;;;;;15.48;8.25;;;;;;;;;;5032417;28;20049;-82
2022/04/22 08:12:21;;;;;;;15.98;9.30;;;;;;;;;;5033273;28;20053;-82
2022/04/22 08:14:59;;;;;;;16.13;8.77;;;;;;;;;;5033395;28;20049;-82
2022/04/22 08:17:28;;;;;;;12.55;7.88;;;;;;;;;;5032678;28;20143;-82
2022/04/22 08:19:57;;;;;;;12.32;6.90;;;;;;;;;;5032526;28;20048;-82
2022/04/22 08:22:26;;;;;;;14.98;7.93;;;;;;;;;;5033236;28;20054;-82
2022/04/22 08:24:55;;;;;;;12.43;7.60;;;;;;;;;;5033957;28;20087;-82
2022/04/22 08:27:24;;;;;;;13.60;7.40;;;;;;;;;;5053107;28;20489;-81
2022/04/22 08:29:53;;;;;;;12.30;6.97;;;;;;;;;;5051920;28;20087;-82
2022/04/22 08:32:24;;;;;;;12.68;7.47;;;;;;;;;;5052713;28;20056;-82
2022/04/22 08:34:53;;;;;;;14.27;7.50;;;;;;;;;;5046374;28;20064;-82
2022/04/22 08:37:22;;;;;;;14.65;6.57;;;;;;;;;;5052588;28;20133;-82
2022/04/22 08:39:50;;;;;;;11.27;6.78;;;;;;;;;;5052553;28;20503;-82
2022/04/22 08:42:25;;;;;;;13.43;7.35;;;;;;;;;;5052369;28;20106;-82
2022/04/22 08:45:05;;;;;;;10.68;6.93;;;;;;;;;;5052453;28;20415;-82
2022/04/22 08:50:33;;;;;;;11.45;7.07;;;;;;;;;;4953252;28;20047;-82
2022/04/22 08:53:05;;;;;;;12.02;7.32;;;;;;;;;;5035774;28;20135;-82
2022/04/22 08:55:34;;;;;;;13.32;7.47;;;;;;;;;;5057666;28;20140;-82
2022/04/22 08:58:05;;;;;;;13.43;7.82;;;;;;;;;;5058963;28;20064;-82
2022/04/22 09:00:35;;;;;;;11.90;7.38;;;;;;;;;;5058387;28;20056;-81
2022/04/22 09:03:05;;;;;;;14.65;7.07;;;;;;;;;;5057841;28;20611;-82
2022/04/22 09:05:35;;;;;;;11.95;7.07;;;;;;;;;;5057797;28;20107;-82
2022/04/22 09:08:03;;;;;;;10.05;6.35;;;;;;;;;;5056465;28;20124;-82
2022/04/22 09:10:32;;;;;;;13.15;7.32;;;;;;;;;;5048619;28;20110;-81
2022/04/22 09:13:02;;;;;;;12.02;6.85;;;;;;;;;;5055218;28;20476;-82
2022/04/22 09:15:34;;;;;;;11.75;7.07;;;;;;;;;;5052460;28;20053;-82
2022/04/22 09:18:26;;;;;;;10.95;6.80;;;;;;;;;;5051674;28;20061;-82
2022/04/22 09:21:02;;;;;;;10.40;6.88;;;;;;;;;;5051756;28;20443;-82
2022/04/22 09:23:34;;;;;;;13.38;7.00;;;;;;;;;;5051892;28;20053;-82
2022/04/22 09:26:05;;;;;;;11.73;6.88;;;;;;;;;;5044466;28;20481;-82
2022/04/22 09:28:35;;;;;;;12.68;6.97;;;;;;;;;;5032399;28;20515;-82
2022/04/22 09:31:07;;;;;;;12.50;7.40;;;;;;;;;;5032222;28;20123;-82
2022/04/22 09:33:45;;;;;;;11.27;7.25;;;;;;;;;;5031618;28;20053;-82
2022/04/22 09:44:58;;;;;;;13.35;8.13;;;;;;;;;;5031773;28;20132;-81
2022/04/22 09:47:28;;;;;;;11.10;6.57;;;;;;;;;;5032290;28;20046;-82
2022/04/22 09:49:58;;;;;;;11.85;7.22;;;;;;;;;;5031261;28;20049;-82
2022/04/22 09:52:28;;;;;;;11.68;7.60;;;;;;;;;;5031463;28;20068;-82
2022/04/22 09:54:57;;;;;;;11.90;7.82;;;;;;;;;;5031795;28;20050;-82
2022/04/22 09:57:52;;;;;;;13.23;7.80;;;;;;;;;;5031497;28;20103;-82
2022/04/22 10:00:21;;;;;;;10.95;6.78;;;;;;;;;;5014994;28;20046;-82
2022/04/22 10:02:51;;;;;;;11.40;7.00;;;;;;;;;;5031621;28;20077;-82
2022/04/22 10:05:22;;;;;;;13.32;7.72;;;;;;;;;;5039622;28;20176;-82
2022/04/22 10:07:52;;;;;;;14.90;7.13;;;;;;;;;;5053568;28;20122;-82
2022/04/22 10:10:23;;;;;;;12.20;7.10;;;;;;;;;;5055630;28;20057;-82
2022/04/22 10:12:54;;;;;;;11.18;7.45;;;;;;;;;;5055026;28;20045;-82
2022/04/22 10:15:24;;;;;;;15.15;7.30;;;;;;;;;;5055609;28;20124;-82
2022/04/22 10:17:53;;;;;;;13.73;7.22;;;;;;;;;;5054144;28;20045;-83
2022/04/22 10:20:24;;;;;;;11.80;6.93;;;;;;;;;;5055067;28;20080;-82
2022/04/22 10:22:52;;;;;;;12.40;7.47;;;;;;;;;;5055428;28;20084;-82
2022/04/22 10:25:21;;;;;;;13.95;6.95;;;;;;;;;;5055220;28;20045;-82
2022/04/22 10:27:50;;;;;;;11.27;6.85;;;;;;;;;;5054505;28;20718;-82
2022/04/22 10:30:18;;;;;;;10.68;6.68;;;;;;;;;;5054943;28;20072;-82
2022/04/22 10:32:49;;;;;;;11.45;7.63;;;;;;;;;;5054708;28;20088;-82
2022/04/22 10:35:18;;;;;;;11.63;6.88;;;;;;;;;;5040344;28;20473;-82
2022/04/22 10:37:50;;;;;;;11.48;6.80;;;;;;;;;;5054020;28;20049;-82
2022/04/22 10:40:19;;;;;;;14.80;7.53;;;;;;;;;;5054803;28;20100;-82
2022/04/22 10:42:48;;;;;;;12.32;7.50;;;;;;;;;;5054268;28;20138;-82
2022/04/22 10:48:19;;;;;;;12.27;7.40;;;;;;;;;;5054111;28;20534;-82
2022/04/22 10:50:57;;;;;;;13.82;7.47;;;;;;;;;;5035464;28;20511;-81
2022/04/22 10:53:28;;;;;;;13.27;7.60;;;;;;;;;;5044732;28;20048;-82
2022/04/22 10:56:22;;;;;;;11.70;7.93;;;;;;;;;;5054679;28;20498;-82
2022/04/22 10:59:10;;;;;;;14.43;7.78;;;;;;;;;;5053765;28;20128;-82
2022/04/22 11:01:42;;;;;;;13.75;7.68;;;;;;;;;;5054611;28;20369;-82
2022/04/22 11:04:19;;;;;;;11.38;6.78;;;;;;;;;;5054790;28;20045;-82
2022/04/22 11:06:47;;;;;;;12.75;8.65;;;;;;;;;;5054775;28;20061;-81
2022/04/22 11:09:27;;;;;;;13.73;7.70;;;;;;;;;;5036030;28;20066;-82
2022/04/22 11:11:56;;;;;;;11.55;7.15;;;;;;;;;;5034427;28;20099;-82
2022/04/22 11:14:25;;;;;;;14.45;7.57;;;;;;;;;;5034226;28;20051;-82
2022/04/22 11:16:55;;;;;;;12.27;7.55;;;;;;;;;;5034685;28;20045;-82
2022/04/22 11:19:28;;;;;;;13.32;7.93;;;;;;;;;;5051286;28;20056;-82
2022/04/22 11:21:58;;;;;;;10.52;6.93;;;;;;;;;;5054057;28;20053;-82
2022/04/22 11:24:29;;;;;;;12.20;7.30;;;;;;;;;;5051625;28;20092;-82
2022/04/22 11:27:05;;;;;;;12.88;8.02;;;;;;;;;;5033886;28;20057;-82
2022/04/22 11:29:33;;;;;;;13.30;7.78;;;;;;;;;;5033605;28;20049;-82
2022/04/22 11:32:09;;;;;;;12.88;7.57;;;;;;;;;;5033678;28;20049;-82
2022/04/22 11:35:03;;;;;;;14.40;7.47;;;;;;;;;;5034024;28;20489;-82
2022/04/22 11:37:33;;;;;;;14.90;7.80;;;;;;;;;;5034137;28;20150;-82
2022/04/22 11:40:03;;;;;;;15.85;8.70;;;;;;;;;;5033523;28;20122;-82
2022/04/22 11:42:32;;;;;;;14.05;7.88;;;;;;;;;;5044301;28;20053;-82
2022/04/22 11:45:05;;;;;;;13.68;7.15;;;;;;;;;;5052732;28;20060;-82
2022/04/22 11:47:33;;;;;;;12.60;7.47;;;;;;;;;;5054119;28;20063;-82
2022/04/22 11:50:02;;;;;;;11.07;7.32;;;;;;;;;;5037236;28;20107;-82
2022/04/22 11:52:31;;;;;;;11.05;7.22;;;;;;;;;;5033830;28;20041;-82
2022/04/22 11:55:07;;;;;;;12.02;7.60;;;;;;;;;;5033782;28;20049;-82
2022/04/22 11:57:36;;;;;;;14.70;7.95;;;;;;;;;;5033077;28;20049;-82
2022/04/22 12:05:43;;;;;;;17.27;7.90;;;;;;;;;;5032874;28;20153;-82
2022/04/22 12:08:15;;;;;;;13.80;6.38;;;;;;;;;;5033278;28;20128;-82
2022/04/22 12:10:46;;;;;;;11.82;6.68;;;;;;;;;;5034010;28;20103;-82
2022/04/22 12:13:15;;;;;;;11.43;7.60;;;;;;;;;;5033028;28;20055;-82
2022/04/22 12:15:48;;;;;;;10.32;6.85;;;;;;;;;;5033099;28;20091;-81
2022/04/22 12:18:33;;;;;;;14.00;7.50;;;;;;;;;;5032332;28;20551;-82
2022/04/22 12:21:02;;;;;;;10.52;6.93;;;;;;;;;;5032956;28;20558;-82
2022/04/22 12:23:34;;;;;;;11.30;7.55;;;;;;;;;;5032794;28;20473;-82
2022/04/22 12:26:07;;;;;;;10.25;6.55;;;;;;;;;;5039593;28;20121;-82
2022/04/22 12:28:35;;;;;;;11.95;7.55;;;;;;;;;;5051983;28;20059;-82
2022/04/22 12:31:08;;;;;;;13.10;7.78;;;;;;;;;;5052494;28;20098;-82
2022/04/22 12:33:37;;;;;;;14.02;7.85;;;;;;;;;;5040190;28;20057;-82
2022/04/22 12:36:10;;;;;;;12.35;7.82;;;;;;;;;;5043065;28;20091;-82
2022/04/22 12:38:39;;;;;;;13.07;7.97;;;;;;;;;;5051587;28;20124;-82
2022/04/22 12:41:19;;;;;;;13.90;8.32;;;;;;;;;;5052774;28;20053;-82
2022/04/22 12:43:49;;;;;;;11.35;7.53;;;;;;;;;;5032397;28;20049;-82
2022/04/22 12:52:09;;;;;;;14.07;7.82;;;;;;;;;;5032361;28;19921;-82
2022/04/22 12:54:38;;;;;;;12.55;7.40;;;;;;;;;;5032361;28;20054;-82
2022/04/22 12:57:11;;;;;;;11.77;7.88;;;;;;;;;;5032678;28;20115;-82
2022/04/22 12:59:41;;;;;;;12.88;8.77;;;;;;;;;;5031891;28;20048;-82
2022/04/22 13:02:10;;;;;;;10.68;6.78;;;;;;;;;;5032559;28;20076;-82
2022/04/22 13:04:55;;;;;;;13.35;8.25;;;;;;;;;;5032655;28;20050;-82
2022/04/22 13:07:24;;;;;;;11.30;7.70;;;;;;;;;;5033186;28;20481;-82
2022/04/22 13:09:53;;;;;;;17.33;8.35;;;;;;;;;;5032017;28;20072;-82
2022/04/22 13:12:23;;;;;;;12.75;7.80;;;;;;;;;;5032378;28;20049;-82
2022/04/22 13:14:53;;;;;;;10.23;6.78;;;;;;;;;;5033561;28;20041;-82
2022/04/22 13:17:24;;;;;;;13.38;8.40;;;;;;;;;;5052430;28;20049;-82
2022/04/22 13:19:53;;;;;;;11.82;8.07;;;;;;;;;;5052132;28;20532;-82
2022/04/22 13:22:22;;;;;;;12.85;7.85;;;;;;;;;;5052361;28;20360;-82
2022/04/22 13:24:50;;;;;;;11.23;7.13;;;;;;;;;;5037440;28;20452;-82
2022/04/22 13:27:19;;;;;;;11.45;7.38;;;;;;;;;;5032443;28;20050;-82
2022/04/22 13:29:49;;;;;;;10.35;6.57;;;;;;;;;;5031830;28;20084;-82
2022/04/22 13:32:18;;;;;;;9.52;6.25;;;;;;;;;;5032462;28;20099;-82
2022/04/22 13:34:46;;;;;;;12.02;6.75;;;;;;;;;;5031715;28;20103;-82
2022/04/22 13:37:15;;;;;;;10.13;7.07;;;;;;;;;;5032586;28;20132;-82
2022/04/22 13:39:44;;;;;;;10.38;6.60;;;;;;;;;;5031624;28;20042;-82
2022/04/22 13:42:12;;;;;;;12.27;7.05;;;;;;;;;;5039290;28;20063;-82
2022/04/22 13:53:16;;;;;;;11.75;7.57;;;;;;;;;;4970235;28;20085;-82
2022/04/22 13:55:44;;;;;;;11.50;7.00;;;;;;;;;;4970293;28;20051;-82
2022/04/22 13:58:13;;;;;;;11.70;7.25;;;;;;;;;;4997839;28;20180;-82
2022/04/22 14:00:43;;;;;;;10.43;6.78;;;;;;;;;;5031541;28;20104;-82
2022/04/22 14:03:13;;;;;;;11.88;7.50;;;;;;;;;;5031291;28;20077;-82
2022/04/22 14:05:41;;;;;;;10.30;5.95;;;;;;;;;;5039543;28;20497;-82
2022/04/22 14:08:10;;;;;;;9.70;6.63;;;;;;;;;;5051140;28;20045;-82
2022/04/22 14:10:39;;;;;;;9.38;6.45;;;;;;;;;;5051769;28;20049;-82
2022/04/22 14:13:07;;;;;;;10.73;6.95;;;;;;;;;;5050932;28;20127;-82
2022/04/22 14:15:36;;;;;;;13.30;6.88;;;;;;;;;;5039842;28;20045;-82
2022/04/22 14:18:04;;;;;;;9.45;6.05;;;;;;;;;;5031501;28;20050;-82
2022/04/22 14:20:35;;;;;;;10.85;6.55;;;;;;;;;;5031487;28;20089;-82
2022/04/22 14:23:04;;;;;;;12.27;7.25;;;;;;;;;;5031894;28;20097;-82
2022/04/22 14:25:32;;;;;;;9.32;5.90;;;;;;;;;;5032875;28;20491;-82
2022/04/22 14:28:01;;;;;;;15.77;7.95;;;;;;;;;;5034998;28;20053;-82
2022/04/22 14:30:30;;;;;;;11.90;7.55;;;;;;;;;;5035926;28;20429;-82
2022/04/22 14:32:59;;;;;;;13.93;7.18;;;;;;;;;;5046038;28;20045;-81
2022/04/22 14:35:28;;;;;;;11.52;7.13;;;;;;;;;;5056840;28;20069;-82
2022/04/22 14:37:58;;;;;;;11.98;7.90;;;;;;;;;;5056303;28;20297;-82
2022/04/22 14:40:26;;;;;;;11.52;7.28;;;;;;;;;;5057225;28;20052;-82
2022/04/22 14:42:55;;;;;;;11.43;6.95;;;;;;;;;;5038574;28;20050;-82
2022/04/22 14:45:26;;;;;;;14.57;7.05;;;;;;;;;;5031231;28;20413;-82
2022/04/22 14:47:55;;;;;;;9.95;6.57;;;;;;;;;;5030813;28;20063;-82
2022/04/22 14:50:24;;;;;;;9.18;6.20;;;;;;;;;;5031375;28;20053;-82
2022/04/22 14:52:53;;;;;;;8.93;5.90;;;;;;;;;;5032407;28;20485;-82
2022/04/22 14:55:23;;;;;;;9.80;6.10;;;;;;;;;;5038384;28;20399;-82
2022/04/22 14:57:51;;;;;;;9.73;6.47;;;;;;;;;;5054466;28;20115;-82
2022/04/22 15:00:20;;;;;;;12.40;6.72;;;;;;;;;;5054612;28;20056;-82
2022/04/22 15:02:49;;;;;;;10.18;6.25;;;;;;;;;;5055064;28;20103;-82
2022/04/22 15:05:17;;;;;;;12.73;6.40;;;;;;;;;;5052915;28;20397;-82
2022/04/22 15:07:47;;;;;;;14.38;6.60;;;;;;;;;;5034383;28;20072;-82
2022/04/22 15:10:17;;;;;;;12.00;6.88;;;;;;;;;;5035061;28;20084;-82
2022/04/22 15:12:50;;;;;;;9.43;6.35;;;;;;;;;;5034925;28;20413;-82
2022/04/22 15:15:19;;;;;;;11.43;6.28;;;;;;;;;;5034334;28;20053;-82
2022/04/22 15:26:07;;;;;;;9.88;5.50;;;;;;;;;;5033694;28;20128;-82
2022/04/22 15:28:38;;;;;;;10.30;6.65;;;;;;;;;;5033662;28;20049;-82
2022/04/22 15:31:08;;;;;;;11.40;7.00;;;;;;;;;;5033912;28;20046;-82
2022/04/22 15:33:37;;;;;;;9.88;6.13;;;;;;;;;;5033721;28;20046;-81
2022/04/22 15:36:10;;;;;;;8.43;5.88;;;;;;;;;;5043423;28;20045;-82
2022/04/22 15:38:39;;;;;;;10.55;5.82;;;;;;;;;;5053219;28;20053;-82
2022/04/22 15:41:08;;;;;;;7.60;5.47;;;;;;;;;;5036313;28;20049;-82
2022/04/22 15:43:40;;;;;;;8.18;5.72;;;;;;;;;;5033730;28;20049;-82
2022/04/22 15:46:08;;;;;;;9.07;6.43;;;;;;;;;;5033227;28;20099;-82
2022/04/22 15:48:37;;;;;;;7.72;5.35;;;;;;;;;;5033236;28;20052;-82
2022/04/22 15:51:09;;;;;;;8.02;5.28;;;;;;;;;;5033508;28;20057;-82
2022/04/22 15:53:38;;;;;;;9.88;5.82;;;;;;;;;;5033755;28;20088;-82
2022/04/22 15:56:11;;;;;;;9.32;5.60;;;;;;;;;;5035337;28;20254;-81
2022/04/22 15:58:43;;;;;;;7.63;5.15;;;;;;;;;;5032994;28;20103;-81
2022/04/22 16:01:11;;;;;;;8.90;5.53;;;;;;;;;;5033542;28;20096;-82
2022/04/22 16:03:47;;;;;;;8.63;5.20;;;;;;;;;;5032881;28;20042;-82
2022/04/22 16:06:16;;;;;;;8.50;5.65;;;;;;;;;;5033718;28;20064;-82
2022/04/22 16:08:44;;;;;;;10.60;6.10;;;;;;;;;;5033170;28;20123;-82